createdAt,value
2023-02-04T00:00:52.592Z,1.02
2023-02-04T00:03:34.508Z,1.15
2023-02-04T00:06:03.786Z,1.40
2023-02-04T00:08:33.240Z,2.05
2023-02-04T00:11:02.534Z,5.07
2023-02-04T00:13:32.064Z,1.70
2023-02-04T00:16:01.319Z,3.17
2023-02-04T00:18:32.273Z,3.97
2023-02-04T00:21:01.549Z,4.22
2023-02-04T00:23:31.036Z,4.57
2023-02-04T00:26:00.301Z,3.55
2023-02-04T00:28:29.759Z,2.92
2023-02-04T00:30:58.889Z,3.28
2023-02-04T00:33:29.045Z,2.60
2023-02-04T00:35:59.715Z,1.95
2023-02-04T00:38:29.295Z,2.58
2023-02-04T00:40:58.688Z,2.13
2023-02-04T00:43:28.101Z,2.88
2023-02-04T00:45:57.359Z,3.90
2023-02-04T00:48:26.973Z,2.60
2023-02-04T00:50:56.198Z,2.63
2023-02-04T00:53:27.107Z,2.38
2023-02-04T00:55:56.262Z,3.40
2023-02-04T00:58:25.741Z,3.00
2023-02-04T01:00:54.949Z,3.28
2023-02-04T01:03:24.428Z,2.95
2023-02-04T01:05:53.552Z,2.78
2023-02-04T01:08:23.052Z,2.10
2023-02-04T01:10:53.651Z,3.05
2023-02-04T01:13:23.257Z,6.80
2023-02-04T01:15:52.486Z,4.43
2023-02-04T01:18:22.215Z,1.85
2023-02-04T01:20:51.440Z,2.85
2023-02-04T01:23:20.858Z,3.00
2023-02-04T01:25:50.060Z,1.50
2023-02-04T01:28:21.230Z,2.45
2023-02-04T01:30:50.489Z,2.30
2023-02-04T01:33:19.946Z,2.42
2023-02-04T01:35:49.280Z,3.60
2023-02-04T01:38:18.844Z,2.25
2023-02-04T01:40:48.868Z,1.98
2023-02-04T01:45:49.810Z,1.33
2023-02-04T01:51:32.123Z,1.42
2023-02-04T01:54:01.698Z,3.38
2023-02-04T01:56:32.359Z,1.20
2023-02-04T01:59:01.608Z,1.38
2023-02-04T02:01:41.774Z,1.40
2023-02-04T02:04:12.390Z,1.40
2023-02-04T02:06:45.354Z,2.28
2023-02-04T02:09:15.011Z,1.08
2023-02-04T02:11:45.783Z,3.97
2023-02-04T02:14:15.518Z,4.45
2023-02-04T02:16:46.308Z,1.17
2023-02-04T02:19:21.460Z,0.70
2023-02-04T02:21:56.318Z,1.40
2023-02-04T02:24:32.162Z,0.50
2023-02-04T02:27:04.770Z,3.53
2023-02-04T02:29:34.112Z,6.50
2023-02-04T02:32:03.500Z,3.45
2023-02-04T02:34:33.345Z,5.75
2023-02-04T02:37:05.572Z,4.57
2023-02-04T02:39:36.719Z,3.58
2023-02-04T02:42:05.905Z,1.95
2023-02-04T02:44:35.593Z,3.40
2023-02-04T02:47:04.684Z,5.10
2023-02-04T02:49:34.956Z,2.78
2023-02-04T02:52:03.920Z,2.42
2023-02-04T02:54:35.532Z,1.85
2023-02-04T02:57:14.278Z,3.45
2023-02-04T02:59:45.343Z,1.67
2023-02-04T03:02:17.270Z,3.15
2023-02-04T03:04:50.307Z,2.72
2023-02-04T03:07:22.350Z,3.00
2023-02-04T03:09:54.426Z,1.70
2023-02-04T03:12:23.616Z,3.13
2023-02-04T03:14:53.062Z,2.00
2023-02-04T03:17:23.350Z,2.90
2023-02-04T03:19:52.626Z,2.85
2023-02-04T03:22:21.687Z,1.45
2023-02-04T03:24:53.893Z,2.15
2023-02-04T03:27:23.273Z,0.80
2023-02-04T03:32:22.078Z,1.10
2023-02-04T03:34:51.229Z,1.70
2023-02-04T03:37:20.158Z,1.20
2023-02-04T03:39:49.372Z,1.20
2023-02-04T03:42:19.711Z,0.90
2023-02-04T03:44:48.952Z,0.70
2023-02-04T03:47:17.874Z,0.93
2023-02-04T03:49:47.090Z,0.82
2023-02-04T03:52:15.981Z,1.40
2023-02-04T03:54:45.272Z,1.10
2023-02-04T03:57:15.914Z,1.20
2023-02-04T03:59:46.538Z,1.17
2023-02-04T04:04:44.524Z,1.20
2023-02-04T04:07:13.457Z,1.10
2023-02-04T04:09:42.640Z,1.45
2023-02-04T04:12:11.663Z,1.10
2023-02-04T04:14:40.810Z,0.80
2023-02-04T04:17:11.095Z,0.70
2023-02-04T04:19:40.320Z,0.80
2023-02-04T04:22:09.191Z,1.10
2023-02-04T04:24:38.884Z,0.70
2023-02-04T04:27:07.775Z,1.00
2023-02-04T04:29:36.933Z,0.75
2023-02-04T04:32:06.306Z,0.85
2023-02-04T04:34:36.896Z,0.68
2023-02-04T04:39:34.787Z,0.90
2023-02-04T04:42:03.831Z,0.98
2023-02-04T04:44:33.026Z,1.00
2023-02-04T04:47:03.273Z,1.33
2023-02-04T04:49:32.572Z,1.58
2023-02-04T04:52:02.805Z,1.20
2023-02-04T04:54:32.133Z,1.00
2023-02-04T04:57:01.022Z,1.05
2023-02-04T04:59:30.365Z,0.73
2023-02-04T05:01:59.230Z,1.00
2023-02-04T05:04:28.476Z,1.00
2023-02-04T05:06:57.427Z,0.73
2023-02-04T05:09:28.019Z,1.00
2023-02-04T05:11:56.895Z,0.70
2023-02-04T05:14:26.434Z,1.00
2023-02-04T05:16:55.446Z,0.67
2023-02-04T05:19:24.657Z,0.77
2023-02-04T05:21:53.561Z,0.75
2023-02-04T05:24:22.719Z,0.90
2023-02-04T05:26:53.164Z,0.90
2023-02-04T05:29:22.627Z,1.00
2023-02-04T05:31:51.505Z,0.80
2023-02-04T05:34:20.853Z,0.77
2023-02-04T05:36:49.738Z,0.85
2023-02-04T05:39:18.894Z,1.00
2023-02-04T05:41:47.875Z,1.30
2023-02-04T05:44:18.401Z,1.00
2023-02-04T05:46:47.267Z,1.30
2023-02-04T05:49:16.484Z,0.93
2023-02-04T05:51:45.454Z,0.90
2023-02-04T05:54:19.349Z,1.30
2023-02-04T05:56:48.867Z,1.17
2023-02-04T05:59:19.539Z,1.25
2023-02-04T06:01:48.489Z,0.90
2023-02-04T06:04:17.905Z,1.27
2023-02-04T06:06:47.193Z,1.15
2023-02-04T06:09:16.398Z,1.30
2023-02-04T06:11:45.324Z,1.10
2023-02-04T06:14:14.533Z,0.88
2023-02-04T06:16:44.918Z,1.00
2023-02-04T06:19:14.614Z,1.90
2023-02-04T06:21:43.506Z,1.60
2023-02-04T06:24:12.764Z,1.38
2023-02-04T06:26:41.629Z,1.20
2023-02-04T06:29:10.920Z,1.92
2023-02-04T06:31:39.871Z,2.13
2023-02-04T06:34:10.599Z,1.67
2023-02-04T06:39:08.452Z,1.20
2023-02-04T06:41:37.473Z,1.23
2023-02-04T06:44:06.730Z,1.42
2023-02-04T06:46:35.656Z,1.40
2023-02-04T06:49:04.816Z,1.30
2023-02-04T06:51:35.083Z,6.75
2023-02-04T06:54:04.601Z,34.55
2023-02-04T06:56:33.678Z,28.50
2023-02-04T06:59:03.491Z,35.03
2023-02-04T07:01:32.684Z,45.03
2023-02-04T07:04:02.008Z,6.43
2023-02-04T07:06:31.023Z,4.13
2023-02-04T07:09:01.965Z,2.40
2023-02-04T07:11:30.912Z,4.93
2023-02-04T07:14:00.061Z,5.82
2023-02-04T07:16:29.060Z,3.90
2023-02-04T07:18:58.181Z,8.68
2023-02-04T07:21:27.337Z,3.47
2023-02-04T07:23:56.671Z,8.20
2023-02-04T07:26:27.014Z,10.23
2023-02-04T07:28:56.291Z,7.70
2023-02-04T07:31:25.231Z,5.93
2023-02-04T07:33:54.632Z,3.90
2023-02-04T07:36:23.859Z,4.35
2023-02-04T07:38:53.159Z,4.63
2023-02-04T07:41:22.136Z,4.18
2023-02-04T07:43:52.790Z,8.40
2023-02-04T07:48:51.572Z,5.43
2023-02-04T07:51:20.589Z,5.80
2023-02-04T07:53:49.802Z,3.95
2023-02-04T07:56:18.678Z,2.65
2023-02-04T07:58:47.856Z,5.70
2023-02-04T08:01:18.284Z,3.92
2023-02-04T08:03:47.631Z,10.00
2023-02-04T08:06:16.691Z,46.80
2023-02-04T08:08:45.948Z,9.52
2023-02-04T08:11:14.855Z,8.50
2023-02-04T08:13:44.062Z,4.45
2023-02-04T08:16:13.087Z,4.78
2023-02-04T08:18:43.724Z,7.35
2023-02-04T08:23:41.864Z,3.60
2023-02-04T08:26:11.536Z,6.47
2023-02-04T08:28:40.991Z,5.60
2023-02-04T08:31:11.932Z,4.68
2023-02-04T08:33:43.103Z,6.22
2023-02-04T08:36:12.110Z,4.65
2023-02-04T08:38:41.526Z,4.80
2023-02-04T08:41:10.668Z,2.50
2023-02-04T08:43:39.918Z,2.75
2023-02-04T08:46:09.217Z,3.63
2023-02-04T08:48:38.390Z,3.83
2023-02-04T08:51:08.830Z,2.78
2023-02-04T08:53:40.243Z,2.63
2023-02-04T08:56:10.487Z,2.28
2023-02-04T08:58:39.842Z,1.88
2023-02-04T09:01:08.740Z,6.72
2023-02-04T09:03:38.241Z,2.53
2023-02-04T09:06:09.989Z,3.00
2023-02-04T09:08:39.339Z,3.53
2023-02-04T09:11:10.640Z,2.40
2023-02-04T09:13:40.421Z,3.13
2023-02-04T09:16:09.440Z,9.45
2023-02-04T09:18:38.725Z,3.17
2023-02-04T09:21:09.184Z,4.10
2023-02-04T09:23:38.427Z,3.92
2023-02-04T09:26:07.347Z,6.63
2023-02-04T09:28:37.339Z,12.15
2023-02-04T09:31:06.983Z,4.82
2023-02-04T09:33:37.035Z,5.32
2023-02-04T09:36:06.893Z,11.88
2023-02-04T09:38:38.442Z,5.35
2023-02-04T09:41:11.494Z,5.90
2023-02-04T09:43:43.021Z,2.55
2023-02-04T09:46:21.433Z,2.05
2023-02-04T09:48:51.700Z,2.45
2023-02-04T09:51:23.024Z,2.67
2023-02-04T09:53:57.040Z,5.30
2023-02-04T09:56:26.607Z,3.95
2023-02-04T09:58:55.797Z,2.38
2023-02-04T10:01:24.766Z,2.70
2023-02-04T10:04:03.659Z,1.90
2023-02-04T10:06:33.116Z,2.03
2023-02-04T10:09:03.756Z,1.30
2023-02-04T10:14:04.593Z,1.90
2023-02-04T10:16:38.419Z,4.43
2023-02-04T10:19:14.266Z,3.63
2023-02-04T10:21:44.802Z,2.78
2023-02-04T10:24:18.987Z,3.78
2023-02-04T10:26:48.691Z,1.58
2023-02-04T10:29:19.833Z,2.70
2023-02-04T10:31:50.391Z,2.80
2023-02-04T10:34:23.202Z,1.65
2023-02-04T10:36:55.484Z,1.73
2023-02-04T10:39:28.746Z,1.42
2023-02-04T10:41:59.791Z,1.10
2023-02-04T10:44:33.689Z,1.20
2023-02-04T10:47:04.660Z,1.88
2023-02-04T10:49:35.414Z,1.08
2023-02-04T10:52:14.772Z,1.40
2023-02-04T10:54:46.197Z,1.80
2023-02-04T10:57:21.916Z,2.10
2023-02-04T10:59:55.130Z,4.05
2023-02-04T11:02:43.388Z,2.67
2023-02-04T11:05:16.420Z,2.22
2023-02-04T11:07:45.969Z,2.95
2023-02-04T11:10:19.315Z,1.63
2023-02-04T11:13:00.000Z,2.58
2023-02-04T11:15:49.269Z,2.40
2023-02-04T11:18:31.207Z,1.90
2023-02-04T11:21:01.567Z,1.45
2023-02-04T11:23:38.016Z,1.75
2023-02-04T11:26:10.930Z,1.65
2023-02-04T11:29:10.757Z,1.77
2023-02-04T11:31:59.371Z,1.00
2023-02-04T11:34:31.605Z,0.80
2023-02-04T11:37:16.618Z,2.08
2023-02-04T11:39:47.682Z,4.97
2023-02-04T11:42:23.238Z,2.38
2023-02-04T11:44:54.420Z,4.78
2023-02-04T11:47:26.693Z,2.15
2023-02-04T11:49:58.878Z,2.08
2023-02-04T11:52:28.187Z,2.65
2023-02-04T11:55:00.225Z,2.28
2023-02-04T11:57:30.871Z,2.10
2023-02-04T12:02:42.494Z,2.00
2023-02-04T12:05:13.947Z,1.88
2023-02-04T12:07:44.934Z,1.63
2023-02-04T12:10:16.015Z,1.45
2023-02-04T12:12:57.672Z,1.33
2023-02-04T12:15:35.758Z,1.10
2023-02-04T12:18:08.358Z,2.20
2023-02-04T12:20:37.910Z,3.35
2023-02-04T12:23:08.572Z,3.90
2023-02-04T12:28:08.251Z,2.00
2023-02-04T12:30:37.300Z,2.47
2023-02-04T12:33:07.163Z,2.25
2023-02-04T12:35:36.291Z,2.83
2023-02-04T12:38:05.785Z,2.20
2023-02-04T12:40:34.873Z,2.80
2023-02-04T12:43:04.262Z,1.90
2023-02-04T12:45:34.930Z,2.30
2023-02-04T12:48:04.450Z,2.40
2023-02-04T12:50:33.373Z,2.15
2023-02-04T12:53:02.590Z,2.55
2023-02-04T12:55:32.202Z,3.55
2023-02-04T12:58:01.533Z,2.17
2023-02-04T13:00:30.551Z,3.33
2023-02-04T13:03:01.436Z,2.40
2023-02-04T13:05:31.043Z,2.20
2023-02-04T13:08:00.500Z,2.47
2023-02-04T13:10:29.649Z,3.70
2023-02-04T13:13:02.781Z,2.23
2023-02-04T13:15:33.574Z,2.67
2023-02-04T13:18:04.533Z,2.28
2023-02-04T13:20:33.644Z,2.00
2023-02-04T13:23:02.912Z,2.03
2023-02-04T13:25:32.229Z,1.20
2023-02-04T13:28:01.834Z,1.80
2023-02-04T13:30:30.944Z,1.52
2023-02-04T13:33:00.280Z,2.27
2023-02-04T13:35:30.989Z,3.22
2023-02-04T13:38:00.564Z,3.90
2023-02-04T13:40:29.589Z,3.80
2023-02-04T13:42:58.989Z,2.90
2023-02-04T13:45:28.023Z,3.10
2023-02-04T13:47:57.365Z,3.67
2023-02-04T13:50:26.380Z,2.47
2023-02-04T13:52:57.987Z,2.75
2023-02-04T13:55:27.794Z,2.63
2023-02-04T13:57:57.709Z,5.07
2023-02-04T14:00:27.386Z,6.13
2023-02-04T14:02:57.718Z,3.83
2023-02-04T14:05:26.960Z,3.25
2023-02-04T14:08:02.556Z,4.32
2023-02-04T14:10:31.998Z,3.78
2023-02-04T14:13:01.529Z,3.30
2023-02-04T14:15:30.659Z,3.28
2023-02-04T14:18:00.068Z,5.40
2023-02-04T14:20:29.179Z,4.15
2023-02-04T14:22:59.963Z,6.80
2023-02-04T14:25:29.121Z,5.13
2023-02-04T14:28:00.169Z,4.47
2023-02-04T14:30:30.701Z,4.18
2023-02-04T14:33:01.406Z,2.60
2023-02-04T14:35:30.622Z,3.53
2023-02-04T14:38:01.380Z,3.20
2023-02-04T14:40:30.592Z,3.45
2023-02-04T14:42:59.973Z,3.05
2023-02-04T14:45:29.076Z,3.08
2023-02-04T14:48:00.470Z,3.30
2023-02-04T14:50:30.630Z,3.90
2023-02-04T14:53:01.529Z,4.40
2023-02-04T14:55:30.717Z,4.97
2023-02-04T14:58:00.200Z,3.23
2023-02-04T15:00:29.426Z,2.83
2023-02-04T15:02:58.789Z,2.40
2023-02-04T15:05:27.982Z,2.70
2023-02-04T15:07:57.377Z,2.80
2023-02-04T15:10:28.528Z,3.38
2023-02-04T15:12:58.321Z,5.63
2023-02-04T15:15:29.313Z,3.63
2023-02-04T15:18:08.692Z,5.22
2023-02-04T15:20:46.433Z,4.75
2023-02-04T15:23:24.216Z,4.93
2023-02-04T15:26:01.588Z,6.80
2023-02-04T15:28:36.252Z,8.98
2023-02-04T15:31:11.345Z,3.63
2023-02-04T15:33:44.883Z,3.88
2023-02-04T15:36:18.615Z,3.35
2023-02-04T15:38:53.349Z,3.70
2023-02-04T15:41:29.679Z,6.22
2023-02-04T15:44:05.318Z,6.53
2023-02-04T15:46:39.221Z,9.65
2023-02-04T15:49:16.705Z,12.85
2023-02-04T15:51:53.622Z,5.80
2023-02-04T15:54:29.549Z,2.80
2023-02-04T15:57:08.367Z,5.10
2023-02-04T16:02:13.973Z,6.70
2023-02-04T16:04:49.714Z,6.97
2023-02-04T16:07:24.254Z,3.80
2023-02-04T16:09:59.788Z,5.65
2023-02-04T16:12:34.637Z,3.90
2023-02-04T16:15:09.634Z,7.88
2023-02-04T16:17:42.861Z,2.75
2023-02-04T16:20:16.922Z,2.22
2023-02-04T16:22:50.012Z,2.72
2023-02-04T16:25:26.960Z,4.57
2023-02-04T16:28:03.978Z,6.57
2023-02-04T16:30:35.832Z,4.10
2023-02-04T16:33:05.193Z,7.82
2023-02-04T16:36:06.362Z,12.63
2023-02-04T16:38:48.734Z,2.92
2023-02-04T16:41:40.111Z,3.78
2023-02-04T16:44:35.262Z,3.85
2023-02-04T16:47:15.239Z,3.03
2023-02-04T16:50:02.884Z,3.40
2023-02-04T16:52:46.517Z,3.28
2023-02-04T16:55:33.542Z,3.95
2023-02-04T16:58:07.580Z,3.70
2023-02-04T17:00:50.361Z,6.10
2023-02-04T17:03:36.185Z,4.50
2023-02-04T17:06:20.551Z,2.75
2023-02-04T17:08:59.758Z,4.70
2023-02-04T17:11:32.714Z,3.45
2023-02-04T17:14:04.069Z,3.13
2023-02-04T17:16:34.870Z,4.15
2023-02-04T17:19:06.525Z,3.92
2023-02-04T17:21:36.015Z,5.35
2023-02-04T17:24:06.363Z,3.77
2023-02-04T17:29:08.964Z,5.57
2023-02-04T17:34:09.001Z,14.88
2023-02-04T17:36:39.443Z,8.10
2023-02-04T17:39:09.201Z,7.35
2023-02-04T17:41:38.316Z,7.43
2023-02-04T17:44:08.276Z,3.60
2023-02-04T17:46:37.595Z,4.28
2023-02-04T17:49:08.299Z,4.40
2023-02-04T17:51:37.507Z,4.00
2023-02-04T17:54:07.828Z,3.80
2023-02-04T17:56:37.833Z,10.38
2023-02-04T18:01:36.675Z,3.55
2023-02-04T18:04:11.976Z,6.32
2023-02-04T18:06:41.195Z,2.80
2023-02-04T18:09:18.951Z,4.80
2023-02-04T18:11:48.372Z,4.63
2023-02-04T18:14:21.749Z,3.33
2023-02-04T18:16:58.487Z,3.65
2023-02-04T18:19:32.806Z,4.18
2023-02-04T18:22:02.154Z,4.50
2023-02-04T18:24:36.767Z,2.25
2023-02-04T18:27:16.932Z,3.60
2023-02-04T18:32:21.224Z,4.78
2023-02-04T18:34:53.891Z,3.65
2023-02-04T18:37:31.112Z,2.38
2023-02-04T18:40:25.507Z,2.80
2023-02-04T18:43:06.613Z,2.97
2023-02-04T18:45:36.348Z,3.85
2023-02-04T18:48:53.756Z,4.00
2023-02-04T18:51:31.133Z,6.38
2023-02-04T18:54:26.829Z,3.80
2023-02-04T18:57:01.375Z,4.20
2023-02-04T18:59:30.786Z,4.25
2023-02-04T19:02:00.922Z,4.13
2023-02-04T19:04:34.527Z,6.28
2023-02-04T19:07:14.509Z,3.28
2023-02-04T19:09:43.951Z,8.05
2023-02-04T19:12:22.388Z,7.15
2023-02-04T19:14:51.905Z,6.68
2023-02-04T19:17:25.812Z,6.00
2023-02-04T19:19:58.953Z,5.70
2023-02-04T19:22:39.030Z,6.32
2023-02-04T19:25:28.620Z,2.78
2023-02-04T19:28:00.621Z,4.20
2023-02-04T19:30:45.443Z,7.38
2023-02-04T19:33:20.072Z,21.30
2023-02-04T19:35:50.560Z,3.88
2023-02-04T19:38:40.927Z,2.70
2023-02-04T19:41:34.605Z,3.53
2023-02-04T19:44:35.635Z,2.78
2023-02-04T19:47:23.649Z,2.35
2023-02-04T19:49:59.102Z,3.20
2023-02-04T19:52:36.101Z,3.00
2023-02-04T19:55:37.536Z,2.63
2023-02-04T19:58:19.437Z,3.30
2023-02-04T20:00:59.786Z,3.40
2023-02-04T20:03:42.109Z,3.42
2023-02-04T20:06:36.963Z,4.40
2023-02-04T20:09:12.682Z,3.70
2023-02-04T20:11:57.898Z,3.15
2023-02-04T20:14:40.287Z,2.78
2023-02-04T20:17:27.383Z,2.17
2023-02-04T20:19:58.859Z,2.63
2023-02-04T20:22:44.854Z,2.60
2023-02-04T20:25:46.066Z,2.17
2023-02-04T20:28:30.102Z,3.10
2023-02-04T20:31:01.638Z,2.47
2023-02-04T20:33:35.087Z,3.00
2023-02-04T20:36:38.445Z,3.60
2023-02-04T20:39:40.829Z,4.03
2023-02-04T20:42:28.777Z,4.20
2023-02-04T20:45:18.410Z,3.95
2023-02-04T20:47:49.985Z,5.45
2023-02-04T20:50:38.216Z,6.05
2023-02-04T20:53:14.489Z,17.27
2023-02-04T20:55:48.271Z,13.18
2023-02-04T20:58:20.268Z,13.57
2023-02-04T21:00:53.966Z,5.97
2023-02-04T21:03:26.839Z,11.98
2023-02-04T21:05:57.756Z,12.75
2023-02-04T21:08:30.514Z,12.00
2023-02-04T21:11:00.627Z,5.95
2023-02-04T21:13:29.939Z,6.80
2023-02-04T21:16:01.111Z,4.63
2023-02-04T21:18:30.931Z,5.40
2023-02-04T21:21:00.346Z,6.95
2023-02-04T21:23:29.582Z,6.97
2023-02-04T21:25:59.046Z,6.90
2023-02-04T21:28:28.494Z,5.55
2023-02-04T21:30:57.870Z,5.15
2023-02-04T21:33:28.539Z,4.05
2023-02-04T21:35:59.152Z,5.95
2023-02-04T21:40:57.506Z,5.65
2023-02-04T21:43:26.634Z,8.70
2023-02-04T21:45:56.023Z,7.33
2023-02-04T21:48:25.686Z,8.02
2023-02-04T21:50:57.093Z,7.60
2023-02-04T21:53:26.244Z,4.90
2023-02-04T21:55:56.298Z,4.10
2023-02-04T21:58:26.754Z,5.57
2023-02-04T22:00:56.092Z,7.05
2023-02-04T22:03:25.182Z,6.95
2023-02-04T22:05:55.978Z,7.80
2023-02-04T22:08:25.119Z,9.13
2023-02-04T22:10:54.441Z,7.97
2023-02-04T22:13:40.762Z,12.35
2023-02-04T22:16:10.428Z,8.30
2023-02-04T22:18:39.417Z,8.88
2023-02-04T22:21:10.462Z,10.57
2023-02-04T22:23:39.700Z,9.02
2023-02-04T22:26:09.235Z,9.35
2023-02-04T22:28:38.332Z,13.40
2023-02-04T22:31:07.918Z,12.13
2023-02-04T22:33:37.055Z,11.03
2023-02-04T22:36:06.750Z,10.60
2023-02-04T22:38:37.210Z,9.05
2023-02-04T22:41:07.213Z,11.50
2023-02-04T22:43:36.419Z,9.40
2023-02-04T22:46:05.851Z,7.53
2023-02-04T22:48:34.986Z,6.63
2023-02-04T22:51:04.486Z,6.43
2023-02-04T22:53:33.553Z,6.30
2023-02-04T22:56:04.344Z,6.70
2023-02-04T22:58:33.450Z,6.60
2023-02-04T23:01:02.821Z,9.15
2023-02-04T23:03:31.917Z,7.68
2023-02-04T23:06:01.256Z,7.70
2023-02-04T23:08:30.389Z,8.43
2023-02-04T23:11:00.009Z,8.25
2023-02-04T23:13:30.602Z,9.05
2023-02-04T23:16:00.197Z,8.90
2023-02-04T23:18:29.273Z,9.80
2023-02-04T23:20:58.754Z,9.53
2023-02-04T23:23:29.607Z,7.60
2023-02-04T23:26:00.440Z,8.65
2023-02-04T23:28:32.049Z,8.77
2023-02-04T23:31:01.626Z,8.40
2023-02-04T23:33:30.665Z,11.00
2023-02-04T23:36:00.048Z,10.57
2023-02-04T23:38:31.084Z,9.73
2023-02-04T23:41:00.587Z,9.68
2023-02-04T23:43:31.022Z,9.90
2023-02-04T23:46:00.448Z,10.40
2023-02-04T23:48:29.536Z,10.65
2023-02-04T23:50:58.935Z,12.10
2023-02-04T23:53:27.946Z,9.88
2023-02-04T23:55:57.247Z,11.02
2023-02-04T23:58:26.319Z,12.50
